Kezdőlap
METAR-TAF:

METAR-TAF

Repülőterek :

Caracas, Venezuela

földrajzi szélesség: 10-36N, földrajzi hosszúság: 066-59W, magasság: 43 m

Jelenlegi meteorológiai megfigyelések

A jelentés 32 perccel ezelõtt készült, 15:00 UTC
Keleti szél 5 kt
Hőmérséklet 26°C
Páratartalom 70%
Légköri nyomás 1012 hPa
Látótávolság 10 km, vagy több
Szórványos felhőzet 1600 lábon

METAR: SVMI 211500Z 09005KT 9999 SCT016 26/20 Q1012

Idő: 11:32 (15:32 UTC)

Előrejelzés

A jelentés 5 órával és 32 perccel ezelõtt készült, 10:00 UTC
Az előrejelzés 21-én 12 óra UTC és 22-én 12 óra UTC között érvényes
Északi szél kt
Látótávolság 10 km, vagy több
Szakadozott felhőzet 1600 lábon

TAF: SVMI 211000Z 2112/2212 14003KT 9999 BKN016 TX31/19Z TN23/09Z BECM 2112/2116 07006KT 00000KT

Meteorológiai megfigyelések és előrejelzések több, mint 4000 repülőtéren (METAR és TAF jelentéseket).

A térképen piros és sárga pontok jelzik az elérhető meteorológiai állomásokat.

Mozgassa az egeret a pont fölött, hogy megjelenjen az állomás neve.

Azután kattintson az időjárási megfigyelések és előrejelzések megtekintéséhez.

A térkép megváltoztatása: kattintson a fekete keresztel jelölt zöld gombra ráközelítéshez, a vonallal jelölt zöld gombra távolításhoz, vagy a zöld nyilakra a szomszédos térképek eléréséhez.


METAR-TAF: